createdAt,value
2018-05-04T00:00:58.276Z,82.35
2018-05-04T00:03:29.053Z,78.18
2018-05-04T00:05:59.764Z,84.72
2018-05-04T00:08:31.230Z,87.82
2018-05-04T00:11:04.188Z,83.65
2018-05-04T00:13:36.031Z,91.82
2018-05-04T00:16:07.131Z,89.03
2018-05-04T00:18:38.190Z,85.22
2018-05-04T00:21:09.457Z,83.72
2018-05-04T00:23:40.563Z,84.95
2018-05-04T00:26:11.836Z,84.55
2018-05-04T00:28:42.876Z,86.97
2018-05-04T00:31:14.094Z,87.57
2018-05-04T00:33:45.378Z,91.22
2018-05-04T00:36:16.472Z,98.70
2018-05-04T00:38:47.719Z,90.50
2018-05-04T00:41:18.807Z,87.22
2018-05-04T00:43:50.014Z,92.43
2018-05-04T00:46:21.095Z,81.75
2018-05-04T00:48:52.156Z,72.53
2018-05-04T00:51:23.248Z,74.25
2018-05-04T00:54:03.042Z,78.45
2018-05-04T00:56:35.013Z,74.05
2018-05-04T00:59:06.186Z,73.97
2018-05-04T01:01:37.280Z,73.22
2018-05-04T01:04:08.324Z,77.32
2018-05-04T01:06:39.407Z,75.65
2018-05-04T01:09:10.557Z,74.65
2018-05-04T01:11:41.846Z,77.05
2018-05-04T01:14:12.964Z,81.87
2018-05-04T01:16:44.175Z,77.50
2018-05-04T01:19:15.472Z,78.97
2018-05-04T01:21:46.623Z,84.28
2018-05-04T01:24:17.740Z,81.10
2018-05-04T01:26:48.821Z,80.15
2018-05-04T01:29:19.995Z,69.57
2018-05-04T01:31:51.184Z,78.28
2018-05-04T01:34:22.467Z,75.03
2018-05-04T01:36:53.796Z,71.25
2018-05-04T01:39:24.955Z,72.12
2018-05-04T01:41:56.184Z,69.22
2018-05-04T01:44:27.528Z,76.43
2018-05-04T01:46:58.785Z,77.00
2018-05-04T01:49:30.100Z,74.25
2018-05-04T01:52:01.175Z,76.70
2018-05-04T01:54:32.364Z,77.57
2018-05-04T01:57:03.606Z,77.10
2018-05-04T01:59:35.691Z,73.10
2018-05-04T02:02:06.894Z,73.85
2018-05-04T02:04:37.976Z,77.45
2018-05-04T02:07:09.019Z,81.70
2018-05-04T02:09:40.068Z,75.72
2018-05-04T02:15:33.389Z,84.13
2018-05-04T02:24:38.595Z,70.72
2018-05-04T02:27:09.933Z,72.85
2018-05-04T02:29:40.993Z,70.80
2018-05-04T02:32:12.155Z,69.45
2018-05-04T02:34:43.317Z,74.87
2018-05-04T02:37:16.242Z,72.75
2018-05-04T02:39:47.607Z,75.32
2018-05-04T02:42:18.754Z,75.50
2018-05-04T02:44:49.893Z,76.80
2018-05-04T02:47:21.261Z,75.43
2018-05-04T02:49:52.402Z,72.45
2018-05-04T02:52:23.453Z,72.82
2018-05-04T02:54:55.113Z,79.07
2018-05-04T02:57:26.333Z,77.87
2018-05-04T02:59:57.413Z,78.40
2018-05-04T03:02:28.665Z,75.25
2018-05-04T03:04:59.907Z,77.85
2018-05-04T03:07:31.068Z,79.20
2018-05-04T03:10:02.130Z,85.78
2018-05-04T03:12:34.208Z,82.47
2018-05-04T03:15:06.383Z,80.20
2018-05-04T03:17:37.576Z,79.50
2018-05-04T03:20:08.425Z,78.95
2018-05-04T03:22:39.108Z,76.68
2018-05-04T03:25:12.817Z,88.97
2018-05-04T03:27:43.597Z,74.72
2018-05-04T03:30:14.341Z,74.03
2018-05-04T03:32:45.219Z,71.00
2018-05-04T03:35:15.875Z,77.93
2018-05-04T03:37:46.676Z,69.28
2018-05-04T03:40:17.403Z,69.70
2018-05-04T03:42:48.289Z,68.95
2018-05-04T03:45:19.180Z,72.47
2018-05-04T03:47:49.823Z,71.28
2018-05-04T03:50:20.484Z,75.75
2018-05-04T03:52:51.291Z,72.32
2018-05-04T03:55:22.118Z,72.85
2018-05-04T03:59:06.849Z,68.90
2018-05-04T04:02:45.893Z,69.53
2018-05-04T04:05:16.646Z,66.20
2018-05-04T04:07:47.463Z,70.95
2018-05-04T04:10:18.348Z,72.72
2018-05-04T04:12:48.995Z,69.47
2018-05-04T04:15:19.730Z,73.18
2018-05-04T04:17:50.430Z,73.28
2018-05-04T04:20:21.324Z,74.62
2018-05-04T04:22:52.477Z,76.65
2018-05-04T04:25:23.214Z,72.00
2018-05-04T04:27:53.875Z,73.78
2018-05-04T04:30:24.683Z,73.97
2018-05-04T04:32:55.432Z,70.68
2018-05-04T04:35:27.569Z,69.25
2018-05-04T04:37:58.179Z,76.28
2018-05-04T04:40:28.797Z,77.30
2018-05-04T04:42:59.483Z,71.30
2018-05-04T04:45:30.443Z,73.10
2018-05-04T04:48:01.216Z,76.28
2018-05-04T04:50:32.045Z,75.18
2018-05-04T04:53:03.007Z,73.10
2018-05-04T04:55:33.738Z,69.15
2018-05-04T04:58:04.575Z,71.78
2018-05-04T05:00:35.418Z,74.72
2018-05-04T05:03:06.212Z,71.47
2018-05-04T05:05:40.215Z,70.97
2018-05-04T05:08:11.421Z,73.10
2018-05-04T05:10:42.241Z,71.80
2018-05-04T05:13:12.783Z,67.75
2018-05-04T05:15:43.782Z,74.78
2018-05-04T05:18:14.351Z,67.55
2018-05-04T05:20:44.999Z,71.80
2018-05-04T05:23:15.576Z,75.60
2018-05-04T05:25:46.411Z,69.55
2018-05-04T05:28:17.092Z,69.90
2018-05-04T05:30:47.823Z,71.93
2018-05-04T05:33:18.844Z,71.10
2018-05-04T05:35:49.873Z,73.20
2018-05-04T05:38:20.427Z,73.47
2018-05-04T05:40:51.282Z,73.85
2018-05-04T05:43:22.032Z,67.28
2018-05-04T05:45:52.763Z,70.72
2018-05-04T05:48:24.087Z,71.50
2018-05-04T05:50:54.785Z,73.32
2018-05-04T05:53:25.391Z,74.18
2018-05-04T05:55:56.013Z,73.70
2018-05-04T05:58:26.632Z,80.50
2018-05-04T06:00:57.298Z,81.07
2018-05-04T06:03:27.922Z,79.03
2018-05-04T06:05:58.615Z,78.60
2018-05-04T06:08:29.460Z,77.68
2018-05-04T06:11:00.117Z,73.35
2018-05-04T06:13:31.727Z,77.37
2018-05-04T06:16:02.404Z,76.85
2018-05-04T06:18:33.958Z,77.97
2018-05-04T06:21:04.590Z,79.28
2018-05-04T06:23:35.182Z,78.90
2018-05-04T06:26:05.960Z,71.55
2018-05-04T06:28:36.528Z,70.82
2018-05-04T06:31:07.237Z,74.78
2018-05-04T06:33:37.815Z,74.12
2018-05-04T06:36:08.568Z,71.93
2018-05-04T06:38:39.336Z,79.55
2018-05-04T06:41:09.922Z,71.25
2018-05-04T06:43:40.528Z,74.37
2018-05-04T06:46:11.617Z,75.85
2018-05-04T06:48:42.306Z,73.60
2018-05-04T06:51:13.255Z,76.05
2018-05-04T06:53:44.000Z,74.32
2018-05-04T06:56:14.681Z,79.87
2018-05-04T06:58:45.379Z,72.75
2018-05-04T07:01:16.067Z,69.70
2018-05-04T07:03:46.902Z,67.40
2018-05-04T07:06:17.564Z,70.97
2018-05-04T07:08:48.557Z,70.87
2018-05-04T07:11:19.116Z,71.57
2018-05-04T07:13:49.924Z,69.35
2018-05-04T07:16:20.443Z,73.82
2018-05-04T07:18:51.098Z,73.55
2018-05-04T07:21:21.835Z,72.28
2018-05-04T07:23:52.723Z,70.60
2018-05-04T07:26:23.532Z,68.55
2018-05-04T07:28:54.212Z,72.18
2018-05-04T07:31:25.195Z,74.95
2018-05-04T07:33:56.066Z,67.25
2018-05-04T07:36:26.819Z,77.15
2018-05-04T07:38:57.523Z,76.82
2018-05-04T07:41:28.205Z,75.53
2018-05-04T07:43:59.075Z,75.22
2018-05-04T07:46:29.677Z,74.78
2018-05-04T07:49:00.688Z,73.22
2018-05-04T07:51:31.779Z,76.55
2018-05-04T07:54:02.388Z,77.05
2018-05-04T07:56:38.141Z,75.35
2018-05-04T07:59:10.375Z,73.95
2018-05-04T08:01:42.353Z,74.47
2018-05-04T08:04:13.007Z,77.25
2018-05-04T08:06:43.944Z,74.37
2018-05-04T08:09:14.517Z,72.15
2018-05-04T08:11:45.572Z,75.70
2018-05-04T08:14:16.345Z,76.78
2018-05-04T08:16:47.876Z,72.62
2018-05-04T08:19:19.273Z,78.70
2018-05-04T08:21:50.033Z,76.55
2018-05-04T08:24:20.617Z,80.40
2018-05-04T08:26:51.528Z,78.03
2018-05-04T08:29:22.194Z,73.43
2018-05-04T08:31:52.849Z,73.30
2018-05-04T08:34:23.557Z,73.40
2018-05-04T08:36:54.551Z,77.35
2018-05-04T08:39:25.204Z,79.87
2018-05-04T08:41:55.888Z,76.75
2018-05-04T08:44:26.717Z,77.32
2018-05-04T08:46:57.899Z,75.03
2018-05-04T08:49:28.478Z,83.45
2018-05-04T08:51:59.287Z,83.25
2018-05-04T08:54:29.884Z,80.82
2018-05-04T08:57:00.682Z,73.10
2018-05-04T08:59:31.384Z,80.45
2018-05-04T09:02:02.193Z,82.30
2018-05-04T09:04:32.931Z,81.70
2018-05-04T09:07:03.765Z,76.65
2018-05-04T09:09:34.368Z,72.20
2018-05-04T09:12:05.585Z,83.93
2018-05-04T09:14:36.416Z,83.97
2018-05-04T09:17:07.647Z,69.37
2018-05-04T09:19:39.058Z,88.78
2018-05-04T09:22:11.228Z,74.95
2018-05-04T09:24:42.635Z,76.37
2018-05-04T09:27:14.601Z,76.95
2018-05-04T09:29:45.887Z,80.43
2018-05-04T09:32:17.133Z,76.40
2018-05-04T09:34:48.535Z,81.53
2018-05-04T09:37:19.714Z,77.75
2018-05-04T09:39:50.784Z,72.93
2018-05-04T09:42:22.359Z,68.03
2018-05-04T09:44:53.535Z,78.75
2018-05-04T09:47:25.361Z,72.40
2018-05-04T09:49:56.786Z,78.90
2018-05-04T09:52:28.020Z,79.20
2018-05-04T09:54:59.444Z,72.15
2018-05-04T09:57:32.829Z,71.43
2018-05-04T10:00:04.520Z,79.28
2018-05-04T10:02:36.217Z,79.07
2018-05-04T10:05:06.953Z,87.47
2018-05-04T10:07:37.622Z,75.95
2018-05-04T10:10:08.446Z,73.65
2018-05-04T10:12:39.240Z,75.78
2018-05-04T10:15:09.887Z,80.07
2018-05-04T10:17:40.716Z,77.60
2018-05-04T10:20:11.648Z,76.78
2018-05-04T10:22:43.984Z,67.40
2018-05-04T10:25:14.642Z,73.87
2018-05-04T10:27:45.305Z,72.05
2018-05-04T10:30:16.209Z,70.22
2018-05-04T10:32:46.993Z,78.90
2018-05-04T10:35:17.568Z,75.85
2018-05-04T10:37:48.604Z,69.45
2018-05-04T10:40:19.391Z,75.28
2018-05-04T10:42:50.587Z,79.78
2018-05-04T10:45:21.273Z,77.62
2018-05-04T10:47:51.966Z,82.40
2018-05-04T10:50:22.640Z,79.30
2018-05-04T10:52:53.463Z,78.65
2018-05-04T10:55:24.415Z,77.35
2018-05-04T10:57:57.043Z,86.97
2018-05-04T11:00:28.190Z,81.72
2018-05-04T11:02:58.930Z,83.72
2018-05-04T11:05:29.873Z,72.55
2018-05-04T11:08:00.667Z,83.05
2018-05-04T11:10:31.405Z,81.03
2018-05-04T11:13:02.874Z,77.18
2018-05-04T11:15:33.673Z,69.30
2018-05-04T11:18:04.975Z,73.90
2018-05-04T11:20:35.580Z,71.65
2018-05-04T11:23:06.264Z,71.95
2018-05-04T11:25:36.787Z,66.00
2018-05-04T11:28:07.781Z,73.03
2018-05-04T11:30:38.968Z,76.95
2018-05-04T11:33:09.568Z,75.03
2018-05-04T11:35:41.800Z,72.18
2018-05-04T11:38:13.364Z,68.75
2018-05-04T11:40:44.376Z,73.32
2018-05-04T11:43:15.356Z,76.30
2018-05-04T11:45:46.208Z,78.85
2018-05-04T11:48:17.012Z,79.22
2018-05-04T11:50:47.639Z,81.85
2018-05-04T11:53:18.298Z,78.20
2018-05-04T11:55:49.128Z,77.03
2018-05-04T11:58:19.633Z,73.70
2018-05-04T12:00:50.318Z,78.35
2018-05-04T12:03:20.980Z,74.97
2018-05-04T12:05:51.677Z,77.22
2018-05-04T12:08:22.792Z,76.95
2018-05-04T12:10:53.501Z,78.87
2018-05-04T12:13:24.400Z,83.62
2018-05-04T12:15:55.135Z,82.45
2018-05-04T12:18:25.968Z,80.12
2018-05-04T12:20:56.856Z,80.55
2018-05-04T12:23:27.588Z,83.43
2018-05-04T12:25:58.469Z,80.35
2018-05-04T12:28:29.236Z,77.90
2018-05-04T12:31:00.050Z,83.10
2018-05-04T12:33:30.840Z,81.22
2018-05-04T12:36:01.805Z,88.12
2018-05-04T12:38:32.789Z,82.43
2018-05-04T12:41:03.785Z,90.93
2018-05-04T12:43:39.520Z,79.97
2018-05-04T12:48:52.539Z,83.90
2018-05-04T12:51:23.326Z,83.20
2018-05-04T12:53:55.711Z,79.53
2018-05-04T12:56:26.464Z,78.25
2018-05-04T12:58:57.679Z,81.45
2018-05-04T13:01:28.709Z,67.32
2018-05-04T13:03:59.433Z,75.12
2018-05-04T13:06:30.342Z,76.03
2018-05-04T13:09:02.095Z,87.43
2018-05-04T13:11:32.830Z,79.25
2018-05-04T13:14:03.759Z,80.28
2018-05-04T13:16:34.503Z,75.72
2018-05-04T13:19:05.235Z,82.05
2018-05-04T13:21:36.075Z,70.18
2018-05-04T13:24:06.689Z,75.00
2018-05-04T13:26:37.485Z,75.05
2018-05-04T13:29:08.321Z,72.90
2018-05-04T13:31:39.435Z,72.68
2018-05-04T13:34:09.996Z,72.70
2018-05-04T13:36:40.884Z,78.50
2018-05-04T13:39:11.896Z,76.07
2018-05-04T13:41:42.602Z,78.87
2018-05-04T13:44:13.417Z,77.70
2018-05-04T13:46:44.049Z,82.45
2018-05-04T13:49:14.684Z,83.28
2018-05-04T13:51:45.484Z,84.87
2018-05-04T13:54:16.260Z,81.65
2018-05-04T13:56:47.048Z,81.20
2018-05-04T13:59:17.813Z,80.78
2018-05-04T14:01:48.651Z,87.22
2018-05-04T14:04:19.401Z,80.05
2018-05-04T14:06:50.120Z,80.05
2018-05-04T14:09:23.233Z,81.68
2018-05-04T14:11:54.060Z,80.40
2018-05-04T14:14:24.869Z,83.07
2018-05-04T14:16:55.699Z,84.85
2018-05-04T14:19:26.404Z,82.35
2018-05-04T14:21:57.188Z,84.95
2018-05-04T14:24:28.200Z,86.70
2018-05-04T14:26:58.976Z,86.18
2018-05-04T14:29:29.711Z,80.82
2018-05-04T14:32:00.420Z,91.25
2018-05-04T14:34:31.564Z,86.72
2018-05-04T14:37:02.804Z,88.07
2018-05-04T14:39:33.746Z,80.68
2018-05-04T14:42:04.530Z,86.53
2018-05-04T14:44:35.364Z,89.40
2018-05-04T14:47:06.152Z,89.60
2018-05-04T14:49:37.094Z,86.05
2018-05-04T14:52:08.104Z,90.15
2018-05-04T14:54:39.014Z,84.72
2018-05-04T14:57:09.641Z,84.97
2018-05-04T14:59:40.286Z,81.72
2018-05-04T15:02:11.124Z,84.80
2018-05-04T15:04:42.054Z,82.85
2018-05-04T15:07:12.725Z,83.20
2018-05-04T15:09:43.789Z,89.43
2018-05-04T15:12:14.491Z,88.62
2018-05-04T15:14:47.420Z,80.43
2018-05-04T15:17:18.390Z,88.57
2018-05-04T15:19:49.168Z,87.15
2018-05-04T15:22:19.777Z,84.95
2018-05-04T15:24:50.606Z,88.68
2018-05-04T15:27:21.303Z,93.80
2018-05-04T15:29:52.063Z,88.95
2018-05-04T15:32:25.424Z,85.60
2018-05-04T15:34:56.442Z,86.15
2018-05-04T15:37:27.152Z,84.25
2018-05-04T15:39:59.188Z,90.68
2018-05-04T15:42:29.928Z,84.60
2018-05-04T15:45:01.496Z,86.53
2018-05-04T15:47:33.602Z,87.28
2018-05-04T15:50:08.632Z,85.70
2018-05-04T15:52:39.557Z,87.22
2018-05-04T15:55:12.768Z,91.35
2018-05-04T15:57:43.676Z,84.40
2018-05-04T16:00:14.368Z,87.00
2018-05-04T16:02:45.263Z,91.57
2018-05-04T16:05:15.992Z,81.95
2018-05-04T16:07:46.732Z,84.80
2018-05-04T16:10:17.390Z,83.93
2018-05-04T16:12:48.020Z,85.07
2018-05-04T16:15:18.817Z,84.18
2018-05-04T16:17:49.613Z,81.12
2018-05-04T16:20:20.307Z,89.20
2018-05-04T16:22:51.063Z,89.15
2018-05-04T16:25:21.817Z,86.90
2018-05-04T16:27:52.588Z,81.87
2018-05-04T16:30:23.307Z,80.00
2018-05-04T16:32:54.501Z,86.85
2018-05-04T16:35:25.094Z,82.43
2018-05-04T16:37:55.952Z,79.65
2018-05-04T16:40:30.821Z,83.12
2018-05-04T16:43:01.715Z,87.03
2018-05-04T16:45:32.492Z,82.43
2018-05-04T16:48:07.468Z,84.00
2018-05-04T16:50:40.820Z,85.38
2018-05-04T16:53:12.361Z,85.62
2018-05-04T16:55:43.474Z,79.82
2018-05-04T16:58:14.881Z,83.30
2018-05-04T17:00:46.192Z,80.45
2018-05-04T17:03:17.546Z,87.43
2018-05-04T17:05:48.847Z,93.78
2018-05-04T17:08:20.102Z,88.65
2018-05-04T17:10:51.176Z,87.97
2018-05-04T17:13:22.412Z,84.15
2018-05-04T17:15:53.570Z,84.72
2018-05-04T17:18:24.951Z,84.07
2018-05-04T17:20:56.055Z,79.43
2018-05-04T17:23:27.162Z,88.05
2018-05-04T17:25:59.072Z,79.50
2018-05-04T17:28:32.091Z,78.15
2018-05-04T17:31:04.097Z,81.40
2018-05-04T17:33:35.303Z,89.30
2018-05-04T17:36:07.496Z,84.90
2018-05-04T17:38:45.409Z,83.68
2018-05-04T17:41:18.332Z,84.50
2018-05-04T17:43:50.391Z,92.43
2018-05-04T17:46:21.547Z,92.07
2018-05-04T17:48:53.198Z,93.30
2018-05-04T17:51:24.822Z,93.05
2018-05-04T17:53:56.081Z,89.37
2018-05-04T17:56:28.464Z,95.53
2018-05-04T17:59:00.625Z,93.65
2018-05-04T18:01:31.826Z,96.95
2018-05-04T18:04:03.635Z,85.43
2018-05-04T18:06:35.181Z,83.78
2018-05-04T18:09:06.492Z,98.15
2018-05-04T18:11:37.777Z,102.00
2018-05-04T18:14:09.956Z,90.20
2018-05-04T18:16:41.266Z,87.80
2018-05-04T18:19:12.594Z,91.60
2018-05-04T18:21:44.221Z,98.43
2018-05-04T18:24:15.566Z,85.20
2018-05-04T18:26:46.587Z,84.40
2018-05-04T18:29:17.783Z,84.78
2018-05-04T18:31:48.904Z,89.82
2018-05-04T18:34:19.520Z,87.85
2018-05-04T18:36:50.717Z,87.22
2018-05-04T18:39:21.794Z,79.80
2018-05-04T18:41:52.588Z,79.45
2018-05-04T18:44:23.693Z,81.78
2018-05-04T18:46:57.450Z,83.10
2018-05-04T18:49:28.199Z,80.97
2018-05-04T18:51:59.080Z,78.12
2018-05-04T18:54:29.983Z,79.20
2018-05-04T18:57:01.058Z,82.70
2018-05-04T18:59:31.963Z,78.57
2018-05-04T19:02:02.878Z,73.72
2018-05-04T19:04:33.705Z,78.60
2018-05-04T19:07:04.359Z,75.20
2018-05-04T19:09:35.120Z,80.40
2018-05-04T19:12:05.952Z,80.72
2018-05-04T19:14:36.686Z,84.00
2018-05-04T19:17:07.483Z,87.32
2018-05-04T19:19:38.155Z,81.40
2018-05-04T19:22:13.896Z,81.07
2018-05-04T19:24:44.787Z,80.65
2018-05-04T19:27:20.578Z,81.10
2018-05-04T19:29:51.443Z,83.95
2018-05-04T19:32:22.196Z,76.30
2018-05-04T19:34:52.888Z,81.87
2018-05-04T19:37:24.179Z,88.15
2018-05-04T19:39:58.826Z,85.62
2018-05-04T19:42:30.211Z,80.55
2018-05-04T19:45:01.115Z,84.65
2018-05-04T19:47:33.635Z,86.07
2018-05-04T19:50:04.701Z,84.57
2018-05-04T19:52:35.694Z,82.05
2018-05-04T19:55:06.455Z,82.45
2018-05-04T19:57:37.233Z,79.22
2018-05-04T20:00:08.430Z,78.20
2018-05-04T20:02:40.480Z,79.47
2018-05-04T20:05:14.837Z,85.78
2018-05-04T20:07:45.645Z,75.85
2018-05-04T20:10:16.523Z,77.62
2018-05-04T20:12:47.488Z,84.22
2018-05-04T20:15:18.251Z,83.43
2018-05-04T20:17:49.308Z,85.18
2018-05-04T20:20:20.200Z,80.40
2018-05-04T20:22:51.306Z,78.97
2018-05-04T20:25:21.932Z,85.90
2018-05-04T20:27:53.164Z,81.68
2018-05-04T20:30:23.764Z,83.47
2018-05-04T20:32:54.533Z,80.60
2018-05-04T20:35:26.080Z,71.62
2018-05-04T20:37:56.995Z,78.00
2018-05-04T20:40:27.807Z,80.18
2018-05-04T20:46:02.224Z,79.55
2018-05-04T20:51:45.904Z,76.22
2018-05-04T20:54:16.495Z,79.20
2018-05-04T20:56:47.207Z,83.25
2018-05-04T20:59:17.925Z,83.05
2018-05-04T21:01:48.636Z,86.15
2018-05-04T21:24:32.850Z,77.43
2018-05-04T21:27:03.455Z,73.75
2018-05-04T21:29:34.262Z,77.15
2018-05-04T21:32:04.973Z,77.45
2018-05-04T21:37:39.271Z,77.65
2018-05-04T21:40:10.255Z,78.97
2018-05-04T21:42:43.521Z,75.18
2018-05-04T21:45:14.303Z,75.53
2018-05-04T21:47:45.085Z,78.78
2018-05-04T21:50:15.792Z,80.70
2018-05-04T21:52:46.547Z,81.95
2018-05-04T21:55:17.180Z,95.93
2018-05-04T21:57:47.748Z,77.95
2018-05-04T22:00:18.519Z,73.37
2018-05-04T22:02:49.513Z,70.57
2018-05-04T22:05:20.048Z,73.32
2018-05-04T22:07:51.102Z,73.00
2018-05-04T22:10:21.829Z,68.22
2018-05-04T22:12:52.456Z,74.07
2018-05-04T22:15:23.105Z,68.20
2018-05-04T22:17:54.098Z,72.97
2018-05-04T22:20:24.667Z,66.05
2018-05-04T22:22:55.334Z,70.07
2018-05-04T22:25:25.959Z,70.62
2018-05-04T22:27:56.956Z,69.28
2018-05-04T22:30:27.683Z,69.03
2018-05-04T22:32:58.319Z,67.87
2018-05-04T22:35:28.832Z,68.87
2018-05-04T22:38:00.018Z,68.65
2018-05-04T22:40:31.034Z,74.70
2018-05-04T22:43:02.680Z,70.28
2018-05-04T22:45:33.452Z,76.35
2018-05-04T22:48:04.215Z,74.18
2018-05-04T22:57:09.604Z,78.40
2018-05-04T22:59:40.330Z,75.15
2018-05-04T23:02:10.969Z,74.25
2018-05-04T23:04:41.597Z,76.28
2018-05-04T23:07:12.344Z,69.43
2018-05-04T23:09:42.905Z,76.45
2018-05-04T23:12:13.585Z,77.65
2018-05-04T23:14:44.250Z,75.30
2018-05-04T23:17:15.125Z,69.57
2018-05-04T23:19:45.831Z,71.62
2018-05-04T23:22:25.907Z,76.18
2018-05-04T23:24:56.643Z,78.55
2018-05-04T23:27:27.336Z,75.65
2018-05-04T23:29:57.949Z,78.40
2018-05-04T23:32:28.728Z,73.15
2018-05-04T23:34:59.261Z,71.80
2018-05-04T23:37:30.200Z,70.70
2018-05-04T23:40:00.858Z,73.80
2018-05-04T23:42:31.503Z,71.93
2018-05-04T23:45:02.091Z,72.10
2018-05-04T23:47:32.869Z,73.47
2018-05-04T23:50:03.977Z,72.12
2018-05-04T23:52:35.144Z,69.68
2018-05-04T23:55:05.891Z,72.97
2018-05-04T23:57:36.718Z,70.75
